createdAt,value
2019-03-16T00:00:40.484Z,10.07
2019-03-16T00:03:15.129Z,10.09
2019-03-16T00:05:47.368Z,9.81
2019-03-16T00:08:19.522Z,9.72
2019-03-16T00:10:51.639Z,9.48
2019-03-16T00:13:23.873Z,9.37
2019-03-16T00:15:56.461Z,9.20
2019-03-16T00:18:28.633Z,9.24
2019-03-16T00:21:00.798Z,9.25
2019-03-16T00:23:32.881Z,9.30
2019-03-16T00:26:05.216Z,9.56
2019-03-16T00:28:37.441Z,9.55
2019-03-16T00:31:09.636Z,9.27
2019-03-16T00:33:41.852Z,9.17
2019-03-16T00:36:13.943Z,9.15
2019-03-16T00:38:46.065Z,9.08
2019-03-16T00:41:18.175Z,8.98
2019-03-16T00:43:50.306Z,8.83
2019-03-16T00:46:22.440Z,8.84
2019-03-16T00:48:54.569Z,8.86
2019-03-16T00:51:26.658Z,8.82
2019-03-16T00:53:58.879Z,8.85
2019-03-16T00:56:30.957Z,8.81
2019-03-16T00:59:03.109Z,8.84
2019-03-16T01:01:35.275Z,8.98
2019-03-16T01:04:09.476Z,8.83
2019-03-16T01:06:41.685Z,8.81
2019-03-16T01:09:13.984Z,9.17
2019-03-16T01:11:46.117Z,9.13
2019-03-16T01:14:18.234Z,8.96
2019-03-16T01:16:50.401Z,9.10
2019-03-16T01:19:25.920Z,9.14
2019-03-16T01:21:58.168Z,8.98
2019-03-16T01:24:36.596Z,8.88
2019-03-16T01:27:16.331Z,8.79
2019-03-16T01:29:48.542Z,8.77
2019-03-16T01:32:24.031Z,8.70
2019-03-16T01:34:57.175Z,8.60
2019-03-16T01:37:29.247Z,8.51
2019-03-16T01:40:03.030Z,8.42
2019-03-16T01:42:37.844Z,8.33
2019-03-16T01:45:10.263Z,8.35
2019-03-16T01:47:42.348Z,8.34
2019-03-16T01:50:15.084Z,8.33
2019-03-16T01:52:47.242Z,8.33
2019-03-16T01:55:19.357Z,8.29
2019-03-16T01:57:52.141Z,8.21
2019-03-16T02:00:24.233Z,8.20
2019-03-16T02:02:56.382Z,8.24
2019-03-16T02:05:29.616Z,8.32
2019-03-16T02:08:02.550Z,8.27
2019-03-16T02:10:35.884Z,8.19
2019-03-16T02:13:08.186Z,8.16
2019-03-16T02:15:40.364Z,8.13
2019-03-16T02:18:13.698Z,7.88
2019-03-16T02:20:45.820Z,7.95
2019-03-16T02:23:18.026Z,7.89
2019-03-16T02:25:51.256Z,7.78
2019-03-16T02:28:23.790Z,7.78
2019-03-16T02:30:55.868Z,7.71
2019-03-16T02:33:28.029Z,7.71
2019-03-16T02:36:00.124Z,7.75
2019-03-16T02:38:32.235Z,7.76
2019-03-16T02:41:04.477Z,7.71
2019-03-16T02:43:36.603Z,7.60
2019-03-16T02:46:08.723Z,7.55
2019-03-16T02:48:40.822Z,7.48
2019-03-16T02:51:12.943Z,7.56
2019-03-16T02:53:45.168Z,7.63
2019-03-16T02:56:17.300Z,7.64
2019-03-16T02:58:49.766Z,7.62
2019-03-16T03:01:21.907Z,7.75
2019-03-16T03:03:54.412Z,7.71
2019-03-16T03:06:26.646Z,7.73
2019-03-16T03:08:58.741Z,7.77
2019-03-16T03:11:30.868Z,7.71
2019-03-16T03:14:03.729Z,7.77
2019-03-16T03:16:35.964Z,7.74
2019-03-16T03:19:08.334Z,7.77
2019-03-16T03:21:40.480Z,7.76
2019-03-16T03:24:13.037Z,7.62
2019-03-16T03:26:45.463Z,7.40
2019-03-16T03:29:17.554Z,7.25
2019-03-16T03:31:49.705Z,7.24
2019-03-16T03:34:21.837Z,7.21
2019-03-16T03:36:53.966Z,7.17
2019-03-16T03:39:26.044Z,7.14
2019-03-16T03:41:58.334Z,7.09
2019-03-16T03:44:30.469Z,7.10
2019-03-16T03:47:02.621Z,7.13
2019-03-16T03:49:35.130Z,7.07
2019-03-16T03:52:07.365Z,6.88
2019-03-16T03:54:39.449Z,6.87
2019-03-16T03:57:11.735Z,6.71
2019-03-16T03:59:44.525Z,6.61
2019-03-16T04:02:16.860Z,6.60
2019-03-16T04:04:49.187Z,6.58
2019-03-16T04:07:21.683Z,6.58
2019-03-16T04:09:53.817Z,6.67
2019-03-16T04:12:26.065Z,6.72
2019-03-16T04:14:58.164Z,6.80
2019-03-16T04:17:30.765Z,6.72
2019-03-16T04:20:03.657Z,6.65
2019-03-16T04:22:36.110Z,6.50
2019-03-16T04:25:08.468Z,6.48
2019-03-16T04:27:40.611Z,6.47
2019-03-16T04:30:13.641Z,6.43
2019-03-16T04:32:45.725Z,6.40
2019-03-16T04:35:17.838Z,6.06
2019-03-16T04:37:49.967Z,6.06
2019-03-16T04:40:22.295Z,6.01
2019-03-16T04:42:54.385Z,6.02
2019-03-16T04:45:26.531Z,6.09
2019-03-16T04:47:58.593Z,6.02
2019-03-16T04:50:30.751Z,6.08
2019-03-16T04:53:03.278Z,5.99
2019-03-16T04:55:35.413Z,5.86
2019-03-16T04:58:07.515Z,5.78
2019-03-16T05:00:39.705Z,5.93
2019-03-16T05:03:11.821Z,6.05
2019-03-16T05:05:43.903Z,6.01
2019-03-16T05:08:16.231Z,5.91
2019-03-16T05:10:48.350Z,5.70
2019-03-16T05:13:20.487Z,5.54
2019-03-16T05:15:52.558Z,5.44
2019-03-16T05:18:24.682Z,5.42
2019-03-16T05:20:56.994Z,5.51
2019-03-16T05:23:29.044Z,5.50
2019-03-16T05:26:01.822Z,5.53
2019-03-16T05:28:33.995Z,5.61
2019-03-16T05:31:07.240Z,5.66
2019-03-16T05:33:39.717Z,5.74
2019-03-16T05:36:11.800Z,5.85
2019-03-16T05:38:43.932Z,5.86
2019-03-16T05:41:16.146Z,5.97
2019-03-16T05:43:48.299Z,5.92
2019-03-16T05:46:20.459Z,5.94
2019-03-16T05:48:52.999Z,5.96
2019-03-16T05:51:25.128Z,5.80
2019-03-16T05:53:57.250Z,5.65
2019-03-16T05:56:29.402Z,5.54
2019-03-16T05:59:01.916Z,5.48
2019-03-16T06:01:34.060Z,5.37
2019-03-16T06:04:06.373Z,5.41
2019-03-16T06:06:38.449Z,5.45
2019-03-16T06:09:10.595Z,5.33
2019-03-16T06:11:42.761Z,5.54
2019-03-16T06:14:14.985Z,5.53
2019-03-16T06:16:47.129Z,5.49
2019-03-16T06:19:19.209Z,5.62
2019-03-16T06:21:52.341Z,5.86
2019-03-16T06:24:24.425Z,5.59
2019-03-16T06:26:57.155Z,5.61
2019-03-16T06:29:29.234Z,5.56
2019-03-16T06:32:01.411Z,5.62
2019-03-16T06:34:35.994Z,5.70
2019-03-16T06:37:08.148Z,5.63
2019-03-16T06:39:40.775Z,5.51
2019-03-16T06:42:13.218Z,5.60
2019-03-16T06:44:45.389Z,5.69
2019-03-16T06:47:17.847Z,5.66
2019-03-16T06:49:49.967Z,5.74
2019-03-16T06:52:22.397Z,5.34
2019-03-16T06:54:54.506Z,5.64
2019-03-16T06:57:26.589Z,5.74
2019-03-16T06:59:58.746Z,5.78
2019-03-16T07:02:30.873Z,5.79
2019-03-16T07:05:04.200Z,5.22
2019-03-16T07:07:36.313Z,5.17
2019-03-16T07:10:09.477Z,5.42
2019-03-16T07:12:41.593Z,5.30
2019-03-16T07:15:13.730Z,5.46
2019-03-16T07:17:45.855Z,5.69
2019-03-16T07:20:18.110Z,5.55
2019-03-16T07:22:50.474Z,5.44
2019-03-16T07:25:22.710Z,5.80
2019-03-16T07:27:54.882Z,6.00
2019-03-16T07:30:28.045Z,6.35
2019-03-16T07:33:00.280Z,6.73
2019-03-16T07:35:32.408Z,7.17
2019-03-16T07:38:04.488Z,7.55
2019-03-16T07:40:36.727Z,7.44
2019-03-16T07:43:08.840Z,7.50
2019-03-16T07:45:40.974Z,7.40
2019-03-16T07:48:13.276Z,7.46
2019-03-16T07:50:45.416Z,7.36
2019-03-16T07:53:17.722Z,7.61
2019-03-16T07:55:49.799Z,7.69
2019-03-16T07:58:21.931Z,7.33
2019-03-16T08:00:54.018Z,7.45
2019-03-16T08:03:27.367Z,7.50
2019-03-16T08:06:00.561Z,7.69
2019-03-16T08:08:32.736Z,8.28
2019-03-16T08:11:04.918Z,8.68
2019-03-16T08:13:37.061Z,8.60
2019-03-16T08:16:09.172Z,9.16
2019-03-16T08:18:41.366Z,10.87
2019-03-16T08:21:13.534Z,13.18
2019-03-16T08:23:45.644Z,14.43
2019-03-16T08:26:17.816Z,15.90
2019-03-16T08:28:49.966Z,16.77
2019-03-16T08:31:22.088Z,18.26
2019-03-16T08:33:54.231Z,19.83
2019-03-16T08:36:26.495Z,19.67
2019-03-16T08:39:02.613Z,20.73
2019-03-16T08:41:36.026Z,20.64
2019-03-16T08:44:08.255Z,20.70
2019-03-16T08:46:40.488Z,21.62
2019-03-16T08:49:12.591Z,21.65
2019-03-16T08:51:45.173Z,25.31
2019-03-16T08:54:17.378Z,26.89
2019-03-16T08:56:49.529Z,26.35
2019-03-16T08:59:24.349Z,25.62
2019-03-16T09:01:55.463Z,26.83
2019-03-16T09:04:27.544Z,26.82
2019-03-16T09:07:00.074Z,26.22
2019-03-16T09:09:32.206Z,25.78
2019-03-16T09:12:07.118Z,26.39
2019-03-16T09:14:39.378Z,27.24
2019-03-16T09:17:11.693Z,27.77
2019-03-16T09:19:43.776Z,26.89
2019-03-16T09:22:16.055Z,27.96
2019-03-16T09:24:48.230Z,28.01
2019-03-16T09:27:30.728Z,29.87
2019-03-16T09:29:54.564Z,29.91
2019-03-16T09:32:26.677Z,29.53
2019-03-16T09:34:58.828Z,30.32
2019-03-16T09:37:30.951Z,31.67
2019-03-16T09:40:03.092Z,29.78
2019-03-16T09:42:36.756Z,31.12
2019-03-16T09:45:11.044Z,28.57
2019-03-16T09:47:43.315Z,29.74
2019-03-16T09:50:15.854Z,30.17
2019-03-16T09:52:47.977Z,29.95
2019-03-16T09:55:20.145Z,30.73
2019-03-16T09:57:52.250Z,31.42
2019-03-16T10:00:24.425Z,32.22
2019-03-16T10:02:56.912Z,32.41
2019-03-16T10:05:29.053Z,33.87
2019-03-16T10:08:01.138Z,33.04
2019-03-16T10:10:33.290Z,32.08
2019-03-16T10:13:06.388Z,32.42
2019-03-16T10:15:38.631Z,33.48
2019-03-16T10:18:11.128Z,32.88
2019-03-16T10:20:43.298Z,32.82
2019-03-16T10:23:15.511Z,34.08
2019-03-16T10:25:47.713Z,34.86
2019-03-16T10:28:19.850Z,35.38
2019-03-16T10:30:52.062Z,35.01
2019-03-16T10:33:24.258Z,34.41
2019-03-16T10:35:56.387Z,33.07
2019-03-16T10:38:28.553Z,33.34
2019-03-16T10:41:00.650Z,35.45
2019-03-16T10:43:32.892Z,35.16
2019-03-16T10:46:05.151Z,33.41
2019-03-16T10:48:37.826Z,36.12
2019-03-16T10:51:10.159Z,36.22
2019-03-16T10:53:42.320Z,36.50
2019-03-16T10:56:14.461Z,37.87
2019-03-16T10:58:56.151Z,38.11
2019-03-16T11:01:20.541Z,36.33
2019-03-16T11:03:52.663Z,36.53
2019-03-16T11:06:25.804Z,36.52
2019-03-16T11:08:57.953Z,35.98
2019-03-16T11:11:30.137Z,35.42
2019-03-16T11:14:02.306Z,36.88
2019-03-16T11:16:34.410Z,35.92
2019-03-16T11:19:06.697Z,37.24
2019-03-16T11:21:38.919Z,37.43
2019-03-16T11:24:11.099Z,39.28
2019-03-16T11:26:43.234Z,38.51
2019-03-16T11:29:15.359Z,37.75
2019-03-16T11:31:47.838Z,38.93
2019-03-16T11:34:19.990Z,36.81
2019-03-16T11:36:52.320Z,38.01
2019-03-16T11:39:24.498Z,37.47
2019-03-16T11:41:56.694Z,37.53
2019-03-16T11:44:28.861Z,35.30
2019-03-16T11:47:01.099Z,35.72
2019-03-16T11:49:33.360Z,35.17
2019-03-16T11:52:07.873Z,36.40
2019-03-16T11:54:40.817Z,37.02
2019-03-16T11:57:12.969Z,35.35
2019-03-16T11:59:45.271Z,33.53
2019-03-16T12:02:17.531Z,35.27
2019-03-16T12:04:49.700Z,35.40
2019-03-16T12:07:21.846Z,33.83
2019-03-16T12:09:53.979Z,34.37
2019-03-16T12:12:26.252Z,33.61
2019-03-16T12:14:58.490Z,33.81
2019-03-16T12:17:30.678Z,34.97
2019-03-16T12:20:02.762Z,34.24
2019-03-16T12:22:35.719Z,33.71
2019-03-16T12:25:07.951Z,33.78
2019-03-16T12:27:40.206Z,33.47
2019-03-16T12:30:12.579Z,33.28
2019-03-16T12:32:44.785Z,33.76
2019-03-16T12:35:17.169Z,32.68
2019-03-16T12:37:49.257Z,31.64
2019-03-16T12:40:21.494Z,30.88
2019-03-16T12:42:53.736Z,29.73
2019-03-16T12:45:26.102Z,29.01
2019-03-16T12:47:58.310Z,27.57
2019-03-16T12:50:30.728Z,26.33
2019-03-16T12:53:02.837Z,25.84
2019-03-16T12:55:35.040Z,25.84
2019-03-16T12:58:07.190Z,25.58
2019-03-16T13:00:39.387Z,25.09
2019-03-16T13:03:11.482Z,25.12
2019-03-16T13:05:43.741Z,24.84
2019-03-16T13:08:15.884Z,24.61
2019-03-16T13:10:48.043Z,24.37
2019-03-16T13:13:20.168Z,24.48
2019-03-16T13:15:52.353Z,24.53
2019-03-16T13:18:24.520Z,24.50
2019-03-16T13:20:57.014Z,24.41
2019-03-16T13:23:29.164Z,24.37
2019-03-16T13:26:01.257Z,24.32
2019-03-16T13:28:35.644Z,24.09
2019-03-16T13:31:07.247Z,23.90
2019-03-16T13:33:39.338Z,24.13
2019-03-16T13:36:11.521Z,24.05
2019-03-16T13:38:44.739Z,23.89
2019-03-16T13:41:16.869Z,23.89
2019-03-16T13:43:48.959Z,23.65
2019-03-16T13:46:21.346Z,23.65
2019-03-16T13:48:53.507Z,23.30
2019-03-16T13:51:25.654Z,23.31
2019-03-16T13:53:57.770Z,23.13
2019-03-16T13:56:30.684Z,23.25
2019-03-16T13:59:02.791Z,23.57
2019-03-16T14:01:35.546Z,23.22
2019-03-16T14:04:07.758Z,22.92
2019-03-16T14:06:41.155Z,22.62
2019-03-16T14:09:13.398Z,22.95
2019-03-16T14:11:45.487Z,22.06
2019-03-16T14:14:17.733Z,22.29
2019-03-16T14:16:49.822Z,22.20
2019-03-16T14:19:21.981Z,22.14
2019-03-16T14:21:54.118Z,22.27
2019-03-16T14:24:26.781Z,21.85
2019-03-16T14:26:59.075Z,21.82
2019-03-16T14:29:31.204Z,21.80
2019-03-16T14:32:03.282Z,21.57
2019-03-16T14:34:36.663Z,21.51
2019-03-16T14:37:08.744Z,21.29
2019-03-16T14:39:40.920Z,21.07
2019-03-16T14:42:13.484Z,21.20
2019-03-16T14:44:45.599Z,21.24
2019-03-16T14:47:17.763Z,21.60
2019-03-16T14:49:49.895Z,21.37
2019-03-16T14:52:21.999Z,21.22
2019-03-16T14:54:54.130Z,21.19
2019-03-16T14:57:26.365Z,21.28
2019-03-16T14:59:59.616Z,20.79
2019-03-16T15:02:32.820Z,20.97
2019-03-16T15:05:05.657Z,20.83
2019-03-16T15:07:37.746Z,20.64
2019-03-16T15:10:10.212Z,20.78
2019-03-16T15:12:42.975Z,20.81
2019-03-16T15:15:15.207Z,20.62
2019-03-16T15:17:47.273Z,20.48
2019-03-16T15:20:20.660Z,20.69
2019-03-16T15:22:53.677Z,20.49
2019-03-16T15:25:25.996Z,20.55
2019-03-16T15:27:58.569Z,20.58
2019-03-16T15:30:30.702Z,20.56
2019-03-16T15:33:02.999Z,20.23
2019-03-16T15:35:35.354Z,20.39
2019-03-16T15:38:08.153Z,20.13
2019-03-16T15:40:40.258Z,20.08
2019-03-16T15:43:12.919Z,19.96
2019-03-16T15:45:44.955Z,19.92
2019-03-16T15:48:17.230Z,19.88
2019-03-16T15:50:49.217Z,20.05
2019-03-16T15:53:21.226Z,20.01
2019-03-16T15:55:53.304Z,19.99
2019-03-16T15:58:25.445Z,19.62
2019-03-16T16:01:03.453Z,19.49
2019-03-16T16:03:31.134Z,19.65
2019-03-16T16:06:03.414Z,19.61
2019-03-16T16:08:35.450Z,19.60
2019-03-16T16:11:08.526Z,19.59
2019-03-16T16:13:40.584Z,19.39
2019-03-16T16:16:12.599Z,19.53
2019-03-16T16:18:44.574Z,19.30
2019-03-16T16:21:16.801Z,19.17
2019-03-16T16:23:48.831Z,19.14
2019-03-16T16:26:21.045Z,19.22
2019-03-16T16:28:53.062Z,19.15
2019-03-16T16:31:25.339Z,18.96
2019-03-16T16:33:57.547Z,18.81
2019-03-16T16:36:29.686Z,18.84
2019-03-16T16:39:01.668Z,18.70
2019-03-16T16:41:34.257Z,18.82
2019-03-16T16:44:06.378Z,18.76
2019-03-16T16:46:38.447Z,18.54
2019-03-16T16:49:11.518Z,18.64
2019-03-16T16:51:43.466Z,18.73
2019-03-16T16:54:15.475Z,18.32
2019-03-16T16:56:47.505Z,18.25
2019-03-16T16:59:19.531Z,18.22
2019-03-16T17:01:51.547Z,18.13
2019-03-16T17:04:23.573Z,18.02
2019-03-16T17:06:55.581Z,18.00
2019-03-16T17:09:31.053Z,18.02
2019-03-16T17:12:07.758Z,17.99
2019-03-16T17:14:39.888Z,17.87
2019-03-16T17:17:12.388Z,17.81
2019-03-16T17:19:44.363Z,17.72
2019-03-16T17:22:16.412Z,17.67
2019-03-16T17:24:48.484Z,17.57
2019-03-16T17:27:20.638Z,17.45
2019-03-16T17:29:52.650Z,17.44
2019-03-16T17:32:24.679Z,17.37
2019-03-16T17:34:56.664Z,17.25
2019-03-16T17:37:28.975Z,16.95
2019-03-16T17:40:07.624Z,16.94
2019-03-16T17:42:53.774Z,16.72
2019-03-16T17:45:30.400Z,16.74
2019-03-16T17:48:07.670Z,16.42
2019-03-16T17:50:43.930Z,16.25
2019-03-16T17:53:21.816Z,16.07
2019-03-16T17:56:02.828Z,16.01
2019-03-16T17:58:48.009Z,15.93
2019-03-16T18:01:26.786Z,15.77
2019-03-16T18:04:04.090Z,15.72
2019-03-16T18:12:29.381Z,15.32
2019-03-16T18:15:11.626Z,15.27
2019-03-16T18:17:42.571Z,15.08
2019-03-16T18:20:17.413Z,14.90
2019-03-16T18:22:48.854Z,14.76
2019-03-16T18:25:20.956Z,14.49
2019-03-16T18:27:52.987Z,14.33
2019-03-16T18:30:25.141Z,14.30
2019-03-16T18:32:57.181Z,14.30
2019-03-16T18:35:29.222Z,14.17
2019-03-16T18:38:01.225Z,14.10
2019-03-16T18:40:33.301Z,13.90
2019-03-16T18:43:05.364Z,13.76
2019-03-16T18:45:46.906Z,13.73
2019-03-16T18:48:24.708Z,13.72
2019-03-16T18:51:00.708Z,13.66
2019-03-16T18:53:38.969Z,13.55
2019-03-16T18:56:18.929Z,13.33
2019-03-16T18:59:01.545Z,13.25
2019-03-16T19:01:38.704Z,13.17
2019-03-16T19:04:43.544Z,13.25
2019-03-16T19:07:20.933Z,13.07
2019-03-16T19:09:58.983Z,13.05
2019-03-16T19:12:37.884Z,12.99
2019-03-16T19:15:16.368Z,12.95
2019-03-16T19:17:59.583Z,12.93
2019-03-16T19:20:44.782Z,12.41
2019-03-16T19:23:25.886Z,12.70
2019-03-16T19:26:05.537Z,12.71
2019-03-16T19:28:43.839Z,12.81
2019-03-16T19:31:23.992Z,12.70
2019-03-16T19:34:00.597Z,12.57
2019-03-16T19:36:46.190Z,12.54
2019-03-16T19:39:33.265Z,12.65
2019-03-16T19:42:13.341Z,12.70
2019-03-16T19:44:54.922Z,12.63
2019-03-16T19:47:37.285Z,12.59
2019-03-16T19:50:14.812Z,12.37
2019-03-16T19:52:53.761Z,12.31
2019-03-16T19:55:29.443Z,12.27
2019-03-16T19:58:11.879Z,12.50
2019-03-16T20:00:52.964Z,12.55
2019-03-16T20:03:26.837Z,12.52
2019-03-16T20:05:59.796Z,12.49
2019-03-16T20:08:40.255Z,12.67
2019-03-16T20:11:38.667Z,12.67
2019-03-16T20:14:22.049Z,12.60
2019-03-16T20:17:37.412Z,12.63
2019-03-16T20:20:11.828Z,12.59
2019-03-16T20:22:46.248Z,12.47
2019-03-16T20:25:25.363Z,12.48
2019-03-16T20:27:59.775Z,12.55
2019-03-16T20:30:33.118Z,12.38
2019-03-16T20:33:11.750Z,12.31
2019-03-16T20:35:50.751Z,12.39
2019-03-16T20:38:28.215Z,12.36
2019-03-16T20:41:03.793Z,12.27
2019-03-16T20:43:39.241Z,12.12
2019-03-16T20:46:43.603Z,12.06
2019-03-16T20:49:27.353Z,12.00
2019-03-16T20:52:08.465Z,12.08
2019-03-16T20:55:47.546Z,11.97
2019-03-16T20:58:28.698Z,11.94
2019-03-16T21:01:11.532Z,12.14
2019-03-16T21:03:58.777Z,12.17
2019-03-16T21:06:36.962Z,12.22
2019-03-16T21:09:14.773Z,12.13
2019-03-16T21:12:04.219Z,12.02
2019-03-16T21:14:42.125Z,12.12
2019-03-16T21:17:18.443Z,12.03
2019-03-16T21:20:31.734Z,12.04
2019-03-16T21:23:13.788Z,12.09
2019-03-16T21:25:52.000Z,12.01
2019-03-16T21:28:33.033Z,12.07
2019-03-16T21:35:09.699Z,11.83
2019-03-16T21:37:47.687Z,11.73
2019-03-16T21:40:23.833Z,11.71
2019-03-16T21:43:42.811Z,11.81
2019-03-16T21:47:13.919Z,11.72
2019-03-16T21:49:55.927Z,11.71
2019-03-16T21:52:32.539Z,11.79
2019-03-16T21:55:10.785Z,11.79
2019-03-16T21:58:54.006Z,11.77
2019-03-16T22:01:33.984Z,11.83
2019-03-16T22:04:09.314Z,11.92
2019-03-16T22:06:41.500Z,11.98
2019-03-16T22:09:13.600Z,11.90
2019-03-16T22:11:46.049Z,11.98
2019-03-16T22:14:22.590Z,12.00
2019-03-16T22:16:54.721Z,11.83
2019-03-16T22:19:27.035Z,11.85
2019-03-16T22:21:59.147Z,11.90
2019-03-16T22:24:31.305Z,11.87
2019-03-16T22:27:03.925Z,11.89
2019-03-16T22:29:39.265Z,11.93
2019-03-16T22:32:11.991Z,11.96
2019-03-16T22:34:47.713Z,11.98
2019-03-16T22:37:19.865Z,11.93
2019-03-16T22:39:56.369Z,11.98
2019-03-16T22:42:28.853Z,12.02
2019-03-16T22:45:01.474Z,11.93
2019-03-16T22:47:33.607Z,11.93
2019-03-16T22:50:06.432Z,11.84
2019-03-16T22:52:38.499Z,11.70
2019-03-16T22:55:10.854Z,11.71
2019-03-16T22:57:43.169Z,11.63
2019-03-16T23:00:15.937Z,11.64
2019-03-16T23:02:50.077Z,11.71
2019-03-16T23:05:22.291Z,11.66
2019-03-16T23:07:55.457Z,11.64
2019-03-16T23:10:29.763Z,11.71
2019-03-16T23:13:02.505Z,11.78
2019-03-16T23:15:35.709Z,11.76
2019-03-16T23:18:19.627Z,11.81
2019-03-16T23:20:58.799Z,11.81
2019-03-16T23:23:31.251Z,11.91
2019-03-16T23:26:04.710Z,11.97
2019-03-16T23:28:38.010Z,11.79
2019-03-16T23:31:19.850Z,11.92
2019-03-16T23:33:52.938Z,11.84
2019-03-16T23:36:25.106Z,11.77
2019-03-16T23:38:57.099Z,11.77
2019-03-16T23:41:29.195Z,11.85
2019-03-16T23:44:01.212Z,11.96
2019-03-16T23:46:38.891Z,11.91
2019-03-16T23:49:14.645Z,11.98
2019-03-16T23:51:46.751Z,11.88
2019-03-16T23:54:18.807Z,11.96
2019-03-16T23:56:51.316Z,11.89
2019-03-16T23:59:23.855Z,11.91
